createdAt,value
2023-01-10T00:01:52.461Z,6.96
2023-01-10T00:04:20.698Z,6.86
2023-01-10T00:06:48.747Z,6.63
2023-01-10T00:09:16.847Z,6.53
2023-01-10T00:12:03.329Z,6.60
2023-01-10T00:14:33.519Z,6.59
2023-01-10T00:17:04.846Z,6.54
2023-01-10T00:19:32.810Z,6.63
2023-01-10T00:22:08.303Z,6.61
2023-01-10T00:24:36.231Z,6.50
2023-01-10T00:27:04.276Z,6.18
2023-01-10T00:29:32.271Z,6.21
2023-01-10T00:32:00.513Z,6.12
2023-01-10T00:34:28.694Z,6.16
2023-01-10T00:36:56.649Z,6.33
2023-01-10T00:39:27.692Z,6.22
2023-01-10T00:42:14.376Z,6.30
2023-01-10T00:44:42.455Z,6.31
2023-01-10T00:47:10.752Z,6.17
2023-01-10T00:49:38.947Z,6.09
2023-01-10T00:52:07.450Z,5.95
2023-01-10T00:54:35.397Z,5.99
2023-01-10T00:57:03.391Z,5.90
2023-01-10T00:59:31.261Z,5.74
2023-01-10T01:01:59.398Z,5.66
2023-01-10T01:04:27.734Z,5.69
2023-01-10T01:06:55.911Z,5.84
2023-01-10T01:09:23.957Z,5.73
2023-01-10T01:11:52.054Z,5.75
2023-01-10T01:14:20.098Z,5.79
2023-01-10T01:16:48.230Z,5.57
2023-01-10T01:19:16.015Z,5.66
2023-01-10T01:21:44.101Z,5.78
2023-01-10T01:24:12.258Z,5.52
2023-01-10T01:26:42.185Z,5.52
2023-01-10T01:29:10.211Z,5.58
2023-01-10T01:31:38.263Z,5.52
2023-01-10T01:34:06.650Z,5.68
2023-01-10T01:36:34.539Z,5.63
2023-01-10T01:39:03.976Z,5.53
2023-01-10T01:41:50.033Z,5.48
2023-01-10T01:44:19.821Z,5.65
2023-01-10T01:47:01.959Z,5.58
2023-01-10T01:49:32.456Z,5.61
2023-01-10T01:52:07.767Z,5.55
2023-01-10T01:54:36.279Z,5.46
2023-01-10T01:57:10.157Z,5.23
2023-01-10T01:59:42.229Z,5.48
2023-01-10T02:02:22.091Z,5.53
2023-01-10T02:05:03.094Z,5.48
2023-01-10T02:07:37.607Z,5.49
2023-01-10T02:10:14.226Z,5.63
2023-01-10T02:12:42.906Z,5.52
2023-01-10T02:15:11.571Z,5.50
2023-01-10T02:17:39.995Z,5.35
2023-01-10T02:20:10.940Z,5.66
2023-01-10T02:23:00.397Z,5.53
2023-01-10T02:25:49.750Z,5.67
2023-01-10T02:28:23.874Z,5.68
2023-01-10T02:31:19.157Z,5.59
2023-01-10T02:34:14.352Z,5.80
2023-01-10T02:37:08.398Z,5.77
2023-01-10T02:40:07.767Z,6.08
2023-01-10T02:43:00.103Z,5.56
2023-01-10T02:46:02.563Z,5.58
2023-01-10T02:48:30.679Z,5.38
2023-01-10T02:51:10.398Z,5.14
2023-01-10T02:53:43.886Z,5.11
2023-01-10T02:56:19.573Z,5.15
2023-01-10T02:59:08.698Z,5.17
2023-01-10T03:02:02.949Z,5.40
2023-01-10T03:04:49.787Z,5.28
2023-01-10T03:07:29.746Z,5.14
2023-01-10T03:10:10.819Z,5.48
2023-01-10T03:13:17.160Z,5.80
2023-01-10T03:15:48.742Z,5.48
2023-01-10T03:18:25.627Z,5.38
2023-01-10T03:20:55.012Z,5.78
2023-01-10T03:23:25.188Z,5.87
2023-01-10T03:25:56.362Z,4.93
2023-01-10T03:28:33.760Z,5.18
2023-01-10T03:31:10.911Z,5.07
2023-01-10T03:33:39.737Z,4.99
2023-01-10T03:36:27.044Z,4.99
2023-01-10T03:38:57.741Z,4.99
2023-01-10T03:41:40.781Z,5.00
2023-01-10T03:44:38.069Z,5.02
2023-01-10T03:47:11.278Z,5.02
2023-01-10T03:49:43.605Z,5.35
2023-01-10T03:52:16.036Z,5.21
2023-01-10T03:54:45.296Z,5.14
2023-01-10T03:57:24.533Z,5.14
2023-01-10T03:59:59.883Z,5.37
2023-01-10T04:02:30.906Z,5.60
2023-01-10T04:04:59.633Z,5.53
2023-01-10T04:07:27.924Z,5.37
2023-01-10T04:09:56.301Z,5.22
2023-01-10T04:12:24.651Z,5.31
2023-01-10T04:14:52.904Z,5.60
2023-01-10T04:17:20.800Z,5.73
2023-01-10T04:19:48.695Z,5.50
2023-01-10T04:22:16.901Z,5.42
2023-01-10T04:24:47.184Z,5.46
2023-01-10T04:27:15.119Z,5.39
2023-01-10T04:29:43.283Z,5.30
2023-01-10T04:32:11.282Z,5.39
2023-01-10T04:34:39.632Z,5.42
2023-01-10T04:37:07.671Z,5.58
2023-01-10T04:39:35.785Z,5.89
2023-01-10T04:42:03.680Z,5.83
2023-01-10T04:44:31.513Z,5.65
2023-01-10T04:46:59.153Z,5.52
2023-01-10T04:49:27.263Z,5.71
2023-01-10T04:51:55.709Z,6.03
2023-01-10T04:54:23.915Z,6.24
2023-01-10T04:56:52.038Z,6.14
2023-01-10T04:59:20.258Z,6.24
2023-01-10T05:01:48.363Z,6.25
2023-01-10T05:04:16.306Z,6.11
2023-01-10T05:06:44.181Z,6.38
2023-01-10T05:09:12.178Z,6.47
2023-01-10T05:11:40.152Z,6.24
2023-01-10T05:14:08.217Z,6.51
2023-01-10T05:16:36.802Z,6.32
2023-01-10T05:19:04.882Z,6.13
2023-01-10T05:21:32.888Z,6.24
2023-01-10T05:24:01.103Z,6.23
2023-01-10T05:26:29.183Z,6.35
2023-01-10T05:28:57.210Z,6.36
2023-01-10T05:31:25.327Z,6.48
2023-01-10T05:33:56.373Z,6.50
2023-01-10T05:36:24.678Z,6.41
2023-01-10T05:38:52.446Z,6.43
2023-01-10T05:41:20.518Z,6.45
2023-01-10T05:43:48.411Z,6.37
2023-01-10T05:46:16.429Z,6.47
2023-01-10T05:48:44.458Z,6.49
2023-01-10T05:51:12.429Z,6.34
2023-01-10T05:53:40.392Z,6.40
2023-01-10T05:56:09.718Z,6.41
2023-01-10T05:58:37.934Z,6.33
2023-01-10T06:01:24.036Z,6.38
2023-01-10T06:03:52.007Z,6.28
2023-01-10T06:06:19.731Z,6.47
2023-01-10T06:08:48.006Z,6.52
2023-01-10T06:11:16.069Z,6.54
2023-01-10T06:13:44.055Z,6.53
2023-01-10T06:16:12.084Z,6.46
2023-01-10T06:18:40.082Z,6.46
2023-01-10T06:21:10.419Z,6.46
2023-01-10T06:23:39.711Z,6.52
2023-01-10T06:26:08.150Z,6.66
2023-01-10T06:28:36.246Z,6.65
2023-01-10T06:31:04.459Z,6.69
2023-01-10T06:33:32.609Z,6.81
2023-01-10T06:36:00.682Z,6.75
2023-01-10T06:38:29.047Z,7.04
2023-01-10T06:40:56.925Z,7.04
2023-01-10T06:43:25.985Z,6.87
2023-01-10T06:45:54.024Z,6.92
2023-01-10T06:48:22.281Z,6.95
2023-01-10T06:50:50.347Z,6.72
2023-01-10T06:53:18.673Z,6.65
2023-01-10T06:55:46.862Z,6.48
2023-01-10T06:58:18.435Z,6.46
2023-01-10T07:00:46.619Z,6.38
2023-01-10T07:03:14.872Z,6.34
2023-01-10T07:16:47.048Z,6.39
2023-01-10T07:19:16.257Z,6.37
2023-01-10T07:21:44.597Z,6.37
2023-01-10T07:24:12.758Z,6.45
2023-01-10T07:26:41.343Z,6.52
2023-01-10T07:29:09.524Z,6.59
2023-01-10T07:31:37.808Z,6.76
2023-01-10T07:34:05.984Z,7.08
2023-01-10T07:36:38.451Z,6.96
2023-01-10T07:39:07.285Z,6.93
2023-01-10T07:41:34.996Z,6.97
2023-01-10T07:44:04.578Z,7.01
2023-01-10T07:46:32.675Z,6.76
2023-01-10T07:49:00.937Z,6.61
2023-01-10T07:51:28.880Z,6.45
2023-01-10T07:53:56.947Z,6.52
2023-01-10T07:56:25.223Z,6.76
2023-01-10T07:58:53.122Z,7.02
2023-01-10T08:01:22.200Z,7.11
2023-01-10T08:03:50.361Z,7.15
2023-01-10T08:06:18.379Z,6.82
2023-01-10T08:08:46.664Z,7.15
2023-01-10T08:11:14.864Z,7.20
2023-01-10T08:13:43.159Z,7.25
2023-01-10T08:16:11.451Z,7.10
2023-01-10T08:18:42.562Z,7.22
2023-01-10T08:21:10.629Z,7.17
2023-01-10T08:23:38.661Z,7.26
2023-01-10T08:26:06.800Z,7.42
2023-01-10T08:28:37.597Z,7.43
2023-01-10T08:31:07.926Z,7.40
2023-01-10T08:33:40.099Z,7.36
2023-01-10T08:36:16.267Z,7.35
2023-01-10T08:38:44.678Z,7.57
2023-01-10T08:41:12.752Z,7.63
2023-01-10T08:43:41.203Z,7.70
2023-01-10T08:46:09.633Z,7.83
2023-01-10T08:48:37.765Z,7.93
2023-01-10T08:51:10.191Z,8.22
2023-01-10T08:53:40.449Z,8.17
2023-01-10T08:56:09.575Z,8.47
2023-01-10T08:58:37.809Z,8.53
2023-01-10T09:01:07.655Z,8.79
2023-01-10T09:03:35.934Z,8.85
2023-01-10T09:06:04.187Z,8.87
2023-01-10T09:08:32.879Z,9.07
2023-01-10T09:11:01.751Z,8.98
2023-01-10T09:13:30.393Z,9.21
2023-01-10T09:16:02.977Z,9.09
2023-01-10T09:18:31.263Z,9.37
2023-01-10T09:20:59.412Z,9.32
2023-01-10T09:23:27.556Z,9.35
2023-01-10T09:25:59.092Z,9.33
2023-01-10T09:28:27.197Z,10.19
2023-01-10T09:30:55.431Z,10.78
2023-01-10T09:33:23.972Z,11.06
2023-01-10T09:35:52.115Z,11.41
2023-01-10T09:38:22.398Z,11.42
2023-01-10T09:41:17.155Z,11.68
2023-01-10T09:44:17.367Z,12.00
2023-01-10T09:53:27.992Z,12.14
2023-01-10T09:56:00.169Z,12.15
2023-01-10T09:58:32.232Z,12.26
2023-01-10T10:01:17.784Z,12.23
2023-01-10T10:04:10.327Z,12.35
2023-01-10T10:06:38.615Z,12.58
2023-01-10T10:09:06.732Z,12.72
2023-01-10T10:11:54.954Z,12.71
2023-01-10T10:15:09.131Z,12.60
2023-01-10T10:17:48.662Z,12.66
2023-01-10T10:20:41.701Z,12.61
2023-01-10T10:23:37.959Z,12.79
2023-01-10T10:26:28.788Z,12.83
2023-01-10T10:29:15.015Z,12.81
2023-01-10T10:32:18.191Z,12.82
2023-01-10T10:34:59.292Z,12.72
2023-01-10T10:37:39.227Z,12.83
2023-01-10T10:40:15.037Z,12.83
2023-01-10T10:42:50.676Z,12.88
2023-01-10T10:45:21.044Z,12.72
2023-01-10T10:48:03.896Z,12.81
2023-01-10T10:50:35.932Z,12.72
2023-01-10T10:53:05.639Z,12.61
2023-01-10T10:55:38.048Z,12.39
2023-01-10T10:58:07.877Z,12.54
2023-01-10T11:00:35.990Z,12.45
2023-01-10T11:03:16.875Z,12.35
2023-01-10T11:05:47.685Z,12.80
2023-01-10T11:08:20.022Z,12.91
2023-01-10T11:10:52.279Z,12.86
2023-01-10T11:13:35.381Z,12.72
2023-01-10T11:16:06.532Z,12.56
2023-01-10T11:18:35.659Z,12.69
2023-01-10T11:21:06.777Z,13.06
2023-01-10T11:23:41.121Z,13.22
2023-01-10T11:26:40.424Z,13.39
2023-01-10T11:29:19.707Z,13.36
2023-01-10T11:31:51.244Z,13.37
2023-01-10T11:34:29.256Z,13.37
2023-01-10T11:37:03.421Z,13.36
2023-01-10T11:39:50.214Z,13.18
2023-01-10T11:42:31.543Z,13.23
2023-01-10T11:45:37.398Z,13.26
2023-01-10T11:48:10.465Z,13.20
2023-01-10T11:50:44.623Z,13.24
2023-01-10T11:53:33.456Z,13.55
2023-01-10T11:56:03.240Z,13.54
2023-01-10T11:58:39.111Z,13.70
2023-01-10T12:01:27.960Z,13.56
2023-01-10T12:03:58.412Z,13.52
2023-01-10T12:06:29.383Z,13.57
2023-01-10T12:08:58.431Z,13.66
2023-01-10T12:11:31.240Z,13.84
2023-01-10T12:14:02.749Z,14.05
2023-01-10T12:16:33.547Z,14.09
2023-01-10T12:19:04.982Z,14.18
2023-01-10T12:21:43.236Z,14.28
2023-01-10T12:24:28.823Z,14.27
2023-01-10T12:26:58.031Z,14.41
2023-01-10T12:29:36.938Z,14.58
2023-01-10T12:32:08.707Z,14.66
2023-01-10T12:34:47.335Z,14.65
2023-01-10T12:37:26.474Z,14.63
2023-01-10T12:40:09.917Z,14.67
2023-01-10T12:43:15.676Z,14.79
2023-01-10T12:46:02.832Z,14.79
2023-01-10T12:48:43.855Z,14.79
2023-01-10T12:51:16.025Z,14.74
2023-01-10T12:53:55.323Z,14.77
2023-01-10T12:56:23.558Z,14.73
2023-01-10T12:58:58.657Z,14.75
2023-01-10T13:01:36.671Z,14.73
2023-01-10T13:04:10.679Z,14.84
2023-01-10T13:06:41.790Z,14.77
2023-01-10T13:09:15.027Z,14.70
2023-01-10T13:11:52.415Z,14.80
2023-01-10T13:14:27.371Z,14.82
2023-01-10T13:17:08.640Z,14.87
2023-01-10T13:19:36.806Z,14.96
2023-01-10T13:22:23.319Z,14.87
2023-01-10T13:25:02.112Z,14.86
2023-01-10T13:27:34.082Z,14.80
2023-01-10T13:30:04.398Z,14.80
2023-01-10T13:32:36.650Z,14.77
2023-01-10T13:35:16.402Z,14.81
2023-01-10T13:37:51.796Z,14.70
2023-01-10T13:40:25.967Z,14.63
2023-01-10T13:43:34.320Z,14.36
2023-01-10T13:46:17.094Z,14.18
2023-01-10T13:49:10.649Z,13.96
2023-01-10T13:51:39.599Z,14.18
2023-01-10T13:54:33.375Z,14.01
2023-01-10T13:57:01.270Z,13.92
2023-01-10T13:59:47.973Z,13.65
2023-01-10T14:02:31.409Z,13.58
2023-01-10T14:05:06.601Z,13.70
2023-01-10T14:07:46.047Z,13.62
2023-01-10T14:10:26.215Z,13.42
2023-01-10T14:13:09.523Z,13.16
2023-01-10T14:15:39.322Z,13.04
2023-01-10T14:18:18.441Z,13.10
2023-01-10T14:20:58.389Z,12.89
2023-01-10T14:23:34.971Z,12.85
2023-01-10T14:26:04.350Z,12.79
2023-01-10T14:28:35.168Z,12.89
2023-01-10T14:31:21.519Z,13.07
2023-01-10T14:33:50.210Z,12.98
2023-01-10T14:36:23.995Z,12.88
2023-01-10T14:38:57.235Z,12.98
2023-01-10T14:41:57.313Z,12.89
2023-01-10T14:44:51.220Z,12.71
2023-01-10T14:47:31.649Z,12.73
2023-01-10T14:50:03.604Z,12.71
2023-01-10T14:52:31.773Z,12.42
2023-01-10T14:55:17.465Z,12.24
2023-01-10T14:58:01.676Z,12.06
2023-01-10T15:00:32.924Z,11.92
2023-01-10T15:03:03.949Z,12.10
2023-01-10T15:05:38.062Z,12.41
2023-01-10T15:08:28.842Z,12.12
2023-01-10T15:11:05.916Z,11.91
2023-01-10T15:13:37.292Z,11.94
2023-01-10T15:16:07.795Z,11.85
2023-01-10T15:18:45.628Z,11.85
2023-01-10T15:21:15.508Z,11.99
2023-01-10T15:23:46.569Z,12.11
2023-01-10T15:26:34.606Z,11.96
2023-01-10T15:29:13.179Z,11.82
2023-01-10T15:31:42.348Z,11.65
2023-01-10T15:34:16.158Z,11.58
2023-01-10T15:36:49.464Z,11.57
2023-01-10T15:39:23.170Z,11.50
2023-01-10T15:41:55.384Z,11.49
2023-01-10T15:44:38.179Z,11.57
2023-01-10T15:47:26.840Z,11.59
2023-01-10T15:49:55.228Z,11.91
2023-01-10T15:52:23.264Z,12.08
2023-01-10T15:54:51.188Z,12.01
2023-01-10T15:57:33.026Z,11.80
2023-01-10T16:00:00.958Z,11.87
2023-01-10T16:02:29.441Z,11.82
2023-01-10T16:05:05.613Z,11.71
2023-01-10T16:07:35.967Z,11.75
2023-01-10T16:10:07.807Z,11.59
2023-01-10T16:12:57.396Z,12.32
2023-01-10T16:15:37.043Z,12.68
2023-01-10T16:18:06.345Z,12.65
2023-01-10T16:20:46.255Z,12.76
2023-01-10T16:23:38.350Z,12.62
2023-01-10T16:26:15.393Z,12.57
2023-01-10T16:28:55.913Z,12.66
2023-01-10T16:31:28.373Z,12.57
2023-01-10T16:34:00.070Z,12.56
2023-01-10T16:36:34.930Z,12.54
2023-01-10T16:39:30.207Z,12.55
2023-01-10T16:42:38.175Z,12.25
2023-01-10T16:45:11.982Z,12.27
2023-01-10T16:47:41.839Z,12.38
2023-01-10T16:50:13.607Z,12.51
2023-01-10T16:52:50.752Z,12.23
2023-01-10T16:55:33.116Z,11.98
2023-01-10T16:58:02.379Z,12.05
2023-01-10T17:00:31.588Z,11.94
2023-01-10T17:03:10.507Z,11.72
2023-01-10T17:05:39.969Z,11.56
2023-01-10T17:08:22.582Z,11.59
2023-01-10T17:10:59.453Z,11.60
2023-01-10T17:13:32.737Z,11.70
2023-01-10T17:16:05.849Z,11.74
2023-01-10T17:18:39.634Z,11.60
2023-01-10T17:21:18.102Z,11.45
2023-01-10T17:23:54.129Z,11.70
2023-01-10T17:26:32.015Z,11.67
2023-01-10T17:29:09.801Z,11.58
2023-01-10T17:31:46.112Z,11.43
2023-01-10T17:34:20.431Z,11.49
2023-01-10T17:36:49.505Z,11.46
2023-01-10T17:39:24.956Z,11.44
2023-01-10T17:41:53.669Z,11.34
2023-01-10T17:44:28.663Z,11.20
2023-01-10T17:46:57.350Z,11.18
2023-01-10T17:49:25.990Z,11.31
2023-01-10T17:51:55.474Z,11.27
2023-01-10T17:54:24.166Z,10.98
2023-01-10T17:56:52.371Z,11.06
2023-01-10T17:59:20.541Z,11.10
2023-01-10T18:01:48.604Z,11.16
2023-01-10T18:04:16.733Z,11.20
2023-01-10T18:06:44.664Z,10.98
2023-01-10T18:09:13.314Z,10.89
2023-01-10T18:11:45.273Z,10.75
2023-01-10T18:14:31.606Z,10.71
2023-01-10T18:17:03.322Z,10.63
2023-01-10T18:19:31.909Z,10.72
2023-01-10T18:22:00.120Z,10.72
2023-01-10T18:24:30.806Z,10.57
2023-01-10T18:26:59.154Z,10.66
2023-01-10T18:29:27.377Z,10.64
2023-01-10T18:31:55.907Z,10.55
2023-01-10T18:34:24.201Z,10.72
2023-01-10T18:36:52.577Z,10.63
2023-01-10T18:39:20.793Z,10.64
2023-01-10T18:41:48.768Z,10.45
2023-01-10T18:44:16.549Z,10.28
2023-01-10T18:46:48.265Z,10.46
2023-01-10T18:49:29.441Z,10.39
2023-01-10T18:52:07.304Z,10.41
2023-01-10T18:54:42.807Z,10.23
2023-01-10T18:57:13.362Z,10.28
2023-01-10T18:59:43.293Z,10.27
2023-01-10T19:02:19.619Z,10.16
2023-01-10T19:04:48.376Z,10.01
2023-01-10T19:07:16.363Z,10.06
2023-01-10T19:09:44.652Z,9.99
2023-01-10T19:12:13.162Z,10.00
2023-01-10T19:14:41.620Z,9.86
2023-01-10T19:17:09.989Z,9.73
2023-01-10T19:19:38.161Z,9.65
2023-01-10T19:22:06.598Z,9.84
2023-01-10T19:24:38.132Z,9.86
2023-01-10T19:27:06.539Z,9.81
2023-01-10T19:29:36.128Z,9.81
2023-01-10T19:32:04.626Z,9.87
2023-01-10T19:34:33.200Z,9.76
2023-01-10T19:37:01.563Z,9.89
2023-01-10T19:39:29.637Z,10.21
2023-01-10T19:41:57.781Z,9.89
2023-01-10T19:44:25.574Z,9.72
2023-01-10T19:46:54.322Z,9.61
2023-01-10T19:49:24.209Z,9.38
2023-01-10T19:51:53.942Z,9.29
2023-01-10T19:54:24.301Z,9.19
2023-01-10T19:56:52.272Z,9.16
2023-01-10T19:59:20.375Z,9.11
2023-01-10T20:01:48.674Z,9.18
2023-01-10T20:04:17.414Z,9.19
2023-01-10T20:06:47.639Z,9.28
2023-01-10T20:09:15.865Z,9.22
2023-01-10T20:11:46.654Z,9.14
2023-01-10T20:14:16.059Z,8.99
2023-01-10T20:16:44.743Z,9.03
2023-01-10T20:19:12.849Z,9.21
2023-01-10T20:21:43.320Z,9.38
2023-01-10T20:24:18.003Z,9.08
2023-01-10T20:26:48.033Z,8.98
2023-01-10T20:29:16.703Z,9.07
2023-01-10T20:31:48.362Z,8.77
2023-01-10T20:34:16.515Z,8.76
2023-01-10T20:36:44.627Z,8.80
2023-01-10T20:39:12.782Z,8.68
2023-01-10T20:41:40.910Z,8.70
2023-01-10T20:44:09.083Z,8.81
2023-01-10T20:46:38.310Z,8.96
2023-01-10T20:49:08.197Z,8.85
2023-01-10T20:51:38.227Z,8.73
2023-01-10T20:54:08.824Z,8.74
2023-01-10T20:56:38.534Z,8.88
2023-01-10T20:59:06.613Z,9.12
2023-01-10T21:01:36.056Z,9.17
2023-01-10T21:04:07.081Z,9.09
2023-01-10T21:06:36.031Z,9.03
2023-01-10T21:09:06.040Z,9.02
2023-01-10T21:11:44.420Z,8.98
2023-01-10T21:14:22.764Z,9.19
2023-01-10T21:16:51.250Z,9.06
2023-01-10T21:19:21.552Z,8.92
2023-01-10T21:21:49.886Z,8.71
2023-01-10T21:24:19.272Z,8.26
2023-01-10T21:26:47.530Z,7.89
2023-01-10T21:29:15.627Z,7.87
2023-01-10T21:31:44.136Z,7.72
2023-01-10T21:34:12.435Z,7.63
2023-01-10T21:36:40.482Z,7.58
2023-01-10T21:39:08.592Z,7.65
2023-01-10T21:41:55.075Z,7.96
2023-01-10T21:44:25.562Z,8.16
2023-01-10T21:46:53.916Z,8.41
2023-01-10T21:49:22.527Z,8.50
2023-01-10T21:51:50.915Z,8.39
2023-01-10T21:54:19.103Z,8.08
2023-01-10T21:56:47.938Z,8.46
2023-01-10T21:59:17.834Z,8.19
2023-01-10T22:01:47.307Z,8.02
2023-01-10T22:04:17.209Z,8.14
2023-01-10T22:06:45.352Z,7.84
2023-01-10T22:09:13.898Z,8.21
2023-01-10T22:11:42.379Z,7.82
2023-01-10T22:14:12.446Z,7.65
2023-01-10T22:16:43.055Z,7.70
2023-01-10T22:19:11.846Z,7.69
2023-01-10T22:21:40.003Z,7.53
2023-01-10T22:24:08.306Z,7.76
2023-01-10T22:26:36.694Z,7.83
2023-01-10T22:29:04.768Z,7.83
2023-01-10T22:31:32.695Z,7.80
2023-01-10T22:34:02.793Z,7.30
2023-01-10T22:36:31.202Z,7.29
2023-01-10T22:38:59.072Z,7.39
2023-01-10T22:41:27.657Z,7.35
2023-01-10T22:43:56.232Z,7.35
2023-01-10T22:46:24.870Z,6.99
2023-01-10T22:48:53.337Z,7.00
2023-01-10T22:51:22.780Z,7.11
2023-01-10T22:53:56.011Z,6.98
2023-01-10T22:56:26.967Z,6.89
2023-01-10T22:58:55.101Z,6.98
2023-01-10T23:01:25.026Z,7.06
2023-01-10T23:03:53.225Z,7.26
2023-01-10T23:06:21.120Z,7.44
2023-01-10T23:08:49.037Z,7.48
2023-01-10T23:11:20.187Z,7.48
2023-01-10T23:13:49.204Z,7.47
2023-01-10T23:16:28.487Z,7.51
2023-01-10T23:19:00.681Z,7.45
2023-01-10T23:21:31.477Z,7.61
2023-01-10T23:24:00.719Z,7.68
2023-01-10T23:26:28.866Z,8.03
2023-01-10T23:28:56.955Z,8.14
2023-01-10T23:31:29.613Z,7.60
2023-01-10T23:33:58.006Z,7.35
2023-01-10T23:36:26.205Z,7.31
2023-01-10T23:38:54.497Z,7.33
2023-01-10T23:41:23.276Z,7.74
2023-01-10T23:43:51.616Z,7.83
2023-01-10T23:46:20.439Z,7.49
2023-01-10T23:48:48.522Z,7.44
2023-01-10T23:51:16.932Z,7.07
2023-01-10T23:53:45.246Z,6.64
2023-01-10T23:56:14.875Z,6.82
2023-01-10T23:58:43.066Z,6.88
